Tiempo atmosférico en la estación meteorológica de Guadalupe , Cáceres (640 m.)



Fecha
DESCASC
Temp. máxima en grados centígrados (hora)
DESCASC
Temp. mínima en grados centígrados (hora)
DESCASC
Temp. media en grados centígrados
DESCASC
Racha de viento máxima en m/sg (hora)
DESCASC
Velocidad máxima media en intervalos de 10 minutos(hora)
DESCASC
Precipitaciones diarias en mm
DESCASC
Precipitaciones de 00:00 a 06:00 en mm
DESCASC
Precipitaciones de 06:00 a 12:00 en mm
DESCASC
Precipitaciones de 12:00 a 18:00 en mm
DESCASC
Precipitaciones de 18:00 a 24:00 en mm
DESCASC
16-04-2019 21.3 (17:50) 5.8 (07:40) 13.5 7.22 (18:40) 3.33 (18:40) 0 0 0 0 0
15-04-2019 22 (15:40) 10.9 (07:20) 16.4 9.44 (15:00) 3.89 (16:30) 0 0 0 0 0
14-04-2019 20.9 (18:30) 8.6 (00:00) 14.8 5.83 (18:40) 2.78 (15:50) 0 0 0 0 0
13-04-2019 22.2 (16:30) 7.9 (00:00) 15.1 9.44 (13:50) 3.89 (14:40) 0 0 0 0 0
12-04-2019 19.9 (17:00) 4.5 (00:00) 12.2 6.67 (17:40) 3.06 (13:00) 0 0 0 0 0
11-04-2019 17.8 (17:10) 5.4 (00:00) 11.6 7.78 (17:10) 4.44 (01:20) 0 0 0 0 0
10-04-2019 15.9 (17:30) 6 (00:00) 10.9 10 (20:30) 4.17 (14:30) 0 0 0 0 0
09-04-2019 13.7 (17:50) 6.4 (00:00) 10 9.72 (01:00) 2.78 (16:10) 4 0 1.4 2.4 0.2
08-04-2019 16.6 (17:00) 8 (00:00) 12.3 10 (14:30) 2.78 (11:50) 6.8 1.8 3.8 0 1.2
07-04-2019 10.6 (14:50) 5.1 (00:00) 7.9 7.78 (06:50) 2.22 (00:20) 14.2 7.4 1.4 0.4 5
06-04-2019 9.4 (12:50) 4.5 (00:00) 6.9 11.94 (18:50) 2.78 (15:00) 7.4 0 4.4 2.6 0.4
05-04-2019 10.4 (15:00) 4.8 (00:00) 7.6 10 (03:30) 2.78 (04:10) 15.8 7.4 6.6 0.4 1.4
04-04-2019 15.9 (16:50) 1.5 (00:00) 8.7 9.44 (00:10) 4.72 (00:20) 0 0 0 0 0
03-04-2019 17.2 (14:50) 4.6 (00:00) 10.9 12.22 (22:30) 6.11 (22:20) 0 0 0 0 0
02-04-2019 20.2 (17:00) 6.4 (00:00) 13.3 6.94 (14:30) 3.61 (14:30) 0 0 0 0 0
01-04-2019 17.9 (15:20) 6.4 (00:00) 12.1 6.11 (18:30) 3.33 (17:10) 0.6 0 0 0 0.6
31-03-2019 18.7 (13:40) 6.6 (00:00) 12.7 6.39 (13:10) 3.61 (18:20) 0.2 0 0 0.2 0
30-03-2019 20.4 (17:20) 4.7 (00:00) 12.5 7.22 (15:40) 3.06 (14:20) 0 0 0 0 0
29-03-2019 19.3 (16:20) 4.6 (00:00) 11.9 6.39 (13:30) 3.61 (14:30) 0 0 0 0 0
28-03-2019 20.1 (16:20) 5 (00:00) 12.6 9.17 (13:30) 4.72 (13:00) 0 0 0 0 0
27-03-2019 19.7 (16:30) 6.8 (00:00) 13.3 8.06 (14:30) 3.61 (14:00) 0 0 0 0 0
26-03-2019 22.4 (16:10) 9.3 (00:00) 15.8 10.28 (15:20) 5.56 (15:20) 0 0 0 0 0
25-03-2019 22.2 (14:00) 8.3 (00:00) 15.3 8.61 (14:10) 4.17 (15:50) 0 0 0 0 0
24-03-2019 21.1 (16:00) 8.2 (00:00) 14.7 8.89 (11:10) 4.72 (13:50) 0 0 0 0 0
23-03-2019 19.9 (15:40) 6.5 (00:00) 13.2 11.39 (15:20) 6.11 (13:30) 0 0 0 0 0
22-03-2019 18.4 (15:50) 3.2 (00:00) 10.8 7.78 (13:40) 3.61 (15:30) 0 0 0 0 0
21-03-2019 17 (16:30) 3.1 (00:00) 10 6.94 (12:00) 3.89 (12:10) 0 0 0 0 0
20-03-2019 15.7 (16:30) 3.4 (00:00) 9.5 8.61 (00:20) 5 (13:00) 0 0 0 0 0
19-03-2019 16.8 (15:10) 3.9 (00:00) 10.3 9.17 (23:30) 4.72 (14:00) 0 0 0 0 0

Gráficas

Temp. máximas Temp. mínimas Temp. medias Precipitaciones Rachas de viento máximas Velocidades máximas media en intervalos de 10 minutos

Datos horarios

Fecha y hora oficial Temperatura (ºC) Velocidad del viento (km/h) Dirección del viento Racha (km/h) Dirección de racha Precipitación (mm) Presión (hPa) Tendencia (hPa) Humedad (%)
2019-04-17 23:00:00 9.8 0 Calma 10 Norte 1 -- -- 92
2019-04-17 22:00:00 10.2 3 Sudoeste 17 Sudoeste 1.4 -- -- 84
2019-04-17 21:00:00 11.5 2 Sudoeste 24 Sur 0.8 -- -- 85
2019-04-17 20:00:00 13.9 3 Sudoeste 14 Sudoeste 0.2 -- -- 80
2019-04-17 19:00:00 15.4 3 Sudoeste 23 Sur 0.2 -- -- 69
2019-04-17 18:00:00 17.1 5 Sur 15 Sudoeste 0 -- -- 54
2019-04-17 17:00:00 17.9 7 Sur 26 Sur 0 -- -- 51
2019-04-17 16:00:00 19.2 3 Sur 18 Sudeste 0 -- -- 51
2019-04-17 15:00:00 18.3 7 Sudeste 13 Este 0 -- -- 51
2019-04-17 14:00:00 17.2 5 Este 12 Este 0 -- -- 52
2019-04-17 13:00:00 17.1 4 Sudeste 10 Sudeste 0 -- -- 51
2019-04-17 12:00:00 16.7 2 Este 5 Este 0 -- -- 52
2019-04-17 11:00:00 15.2 2 Sur 7 Sudeste 0 -- -- 57
2019-04-17 10:00:00 14.8 6 Este 10 Este 0 -- -- 55
2019-04-17 09:00:00 11.6 5 Oeste 9 Noroeste 0 -- -- 68
2019-04-17 08:00:00 9.1 4 Noroeste 6 Noroeste 0 -- -- 81
2019-04-17 07:00:00 9.8 3 Norte 8 Norte 0 -- -- 79
2019-04-17 06:00:00 9.6 2 Noroeste 5 Oeste 0 -- -- 81
2019-04-17 05:00:00 10.5 0 Calma 4 Noroeste 0 -- -- 78
2019-04-17 04:00:00 11.6 0 Calma 5 Norte 0 -- -- 72
2019-04-17 03:00:00 11.6 0 Calma 5 Noroeste 0 -- -- 71
2019-04-17 02:00:00 10.8 0 Calma 3 Noroeste 0 -- -- 71
2019-04-17 01:00:00 12.4 3 Oeste 6 Sur 0 -- -- 61
2019-04-17 00:00:00 13.1 2 Oeste 5 Sudeste 0 -- -- 57
2019-04-16 23:00:00 13.5 0 Calma 7 Sudoeste 0 -- -- 58
2019-04-16 22:00:00 13.4 2 Noroeste 5 Norte 0 -- -- 62
2019-04-16 21:00:00 15.4 3 Norte 10 Sudeste 0 -- -- 53
2019-04-16 20:00:00 18.3 4 Sudeste 19 Sudeste 0 -- -- 44
2019-04-16 19:00:00 20.4 8 Sur 26 Sudeste 0 -- -- 40
2019-04-16 18:00:00 21.3 10 Sudeste 22 Sur 0 -- -- 39
2019-04-16 17:00:00 21.2 8 Sur 21 Sudeste 0 -- -- 38
2019-04-16 16:00:00 20.1 8 Sudeste 23 Sudeste 0 -- -- 41
2019-04-16 15:00:00 19.5 10 Sudeste 21 Sur 0 -- -- 42
2019-04-16 14:00:00 18.2 9 Sudeste 18 Este 0 -- -- 37
2019-04-16 13:00:00 17.6 10 Sudeste 19 Este 0 -- -- 53
2019-04-16 12:00:00 16.6 6 Este 15 Este 0 -- -- 56
2019-04-16 11:00:00 15.4 6 Sudeste 12 Sudeste 0 -- -- 64
2019-04-16 10:00:00 14 5 Este 10 Sudeste 0 -- -- 67
2019-04-16 09:00:00 11.9 0 Calma 4 Nordeste 0 -- -- 72
2019-04-16 08:00:00 5.9 0 Calma 4 Nordeste 0 -- -- 93
2019-04-16 07:00:00 6.1 0 Calma 4 Noroeste 0 -- -- 92
2019-04-16 06:00:00 6.5 0 Calma 9 Noroeste 0 -- -- 90
2019-04-16 05:00:00 7.1 4 Noroeste 8 Oeste 0 -- -- 87
2019-04-16 04:00:00 7.5 0 Calma 6 Noroeste 0 -- -- 86
2019-04-16 03:00:00 8 0 Calma 8 Oeste 0 -- -- 85
2019-04-16 02:00:00 9 2 Noroeste 9 Noroeste 0 -- -- 79
2019-04-16 01:00:00 10.6 8 Noroeste 15 Noroeste 0 -- -- 74
2019-04-16 00:00:00 11.6 5 Noroeste 18 Noroeste 0 -- -- 70
2019-04-15 23:00:00 11.4 4 Noroeste 8 Noroeste 0 -- -- 76
2019-04-15 22:00:00 12.2 0 Calma 14 Oeste 0 -- -- 78
2019-04-15 21:00:00 13.3 8 Noroeste 27 Noroeste 0 -- -- 68
2019-04-15 20:00:00 13.9 7 Norte 30 Noroeste 0 -- -- 66
2019-04-15 19:00:00 15.8 7 Noroeste 27 Noroeste 0 -- -- 65
2019-04-15 18:00:00 17.6 5 Norte 28 Sudoeste 0 -- -- 59
2019-04-15 17:00:00 21.1 6 Sur 27 Sur 0 -- -- 46
2019-04-15 16:00:00 21.9 12 Sur 32 Sur 0 -- -- 46
2019-04-15 15:00:00 21.5 10 Sur 34 Sur 0 -- -- 49
2019-04-15 14:00:00 21.7 12 Sur 28 Sur 0 -- -- 49
2019-04-15 13:00:00 20.5 8 Sur 28 Sur 0 -- -- 57
2019-04-15 12:00:00 20.7 7 Sur 20 Sur 0 -- -- 60
2019-04-15 11:00:00 17.5 6 Sudeste 12 Sur 0 -- -- 73
2019-04-15 10:00:00 15.6 2 Sudeste 4 Sudeste 0 -- -- 82
2019-04-15 09:00:00 13.2 0 Calma 4 Noroeste 0 -- -- 93
2019-04-15 08:00:00 11.5 3 Oeste 4 Noroeste 0 -- -- 96
2019-04-15 07:00:00 11 0 Calma 3 Noroeste 0 -- -- 95
2019-04-15 06:00:00 11.4 0 Calma 4 Norte 0 -- -- 92
2019-04-15 05:00:00 11.7 0 Calma 3 Norte 0 -- -- 93
2019-04-15 04:00:00 12.4 0 Calma 3 Oeste 0 -- -- 91
2019-04-15 03:00:00 12.2 0 Calma 4 Norte 0 -- -- 91
2019-04-15 02:00:00 12.6 0 Calma 4 Norte 0 -- -- 90
2019-04-15 01:00:00 12.7 0 Calma 4 Nordeste 0 -- -- 89
2019-04-15 00:00:00 13 0 Calma 5 Noroeste 0 -- -- 89
2019-04-14 23:00:00 13.7 4 Noroeste 6 Noroeste 0 -- -- 86
2019-04-14 22:00:00 14.8 3 Noroeste 7 Noroeste 0 -- -- 84
2019-04-14 21:00:00 16.3 3 Noroeste 5 Noroeste 0 -- -- 80
2019-04-14 20:00:00 18.1 0 Calma 12 Sur 0 -- -- 70
2019-04-14 19:00:00 20.4 5 Sur 21 Oeste 0 -- -- 56
2019-04-14 18:00:00 19.8 3 Sur 14 Sudeste 0 -- -- 65
2019-04-14 17:00:00 20.3 5 Sudeste 18 Este 0 -- -- 65
2019-04-14 16:00:00 19.4 7 Sudeste 18 Sudeste 0 -- -- 69
2019-04-14 15:00:00 18.2 7 Sudeste 17 Este 0 -- -- 73
2019-04-14 14:00:00 17.3 8 Este 17 Sudeste 0 -- -- 75
2019-04-14 13:00:00 16.6 6 Este 13 Este 0 -- -- 77
2019-04-14 12:00:00 15.4 8 Este 18 Este 0 -- -- 81
2019-04-14 11:00:00 15.1 5 Este 9 Sudeste 0 -- -- 78
2019-04-14 10:00:00 13 3 Sudeste 7 Este 0 -- -- 80
2019-04-14 09:00:00 10.4 0 Calma 3 Norte 0 -- -- 94
2019-04-14 08:00:00 8.7 0 Calma 3 Nordeste 0 -- -- 97
2019-04-14 07:00:00 9 2 Norte 5 Sudeste 0 -- -- 95
2019-04-14 06:00:00 9.6 0 Calma 4 Norte 0 -- -- 94
2019-04-14 05:00:00 10.1 3 Norte 5 Norte 0 -- -- 92
2019-04-14 04:00:00 11.3 0 Calma 10 Oeste 0 -- -- 87
2019-04-14 03:00:00 13 5 Noroeste 11 Noroeste 0 -- -- 79
2019-04-14 02:00:00 13.7 8 Oeste 21 Nordeste 0 -- -- 72
2019-04-14 01:00:00 14.1 5 Norte 19 Norte 0 -- -- 65
2019-04-14 00:00:00 14.2 7 Noroeste 21 Norte 0 -- -- 57
2019-04-13 23:00:00 13.2 5 Norte 13 Noroeste 0 -- -- 56
2019-04-13 22:00:00 13.7 5 Norte 11 Noroeste 0 -- -- 56
2019-04-13 21:00:00 14 4 Noroeste 8 Noroeste 0 -- -- 60
2019-04-13 20:00:00 17.7 0 Calma 15 Sudoeste 0 -- -- 48
2019-04-13 19:00:00 20.7 4 Oeste 15 Noroeste 0 -- -- 39
2019-04-13 18:00:00 21.8 6 Sudoeste 21 Oeste 0 -- -- 35
2019-04-13 17:00:00 22 8 Sur 21 Sudoeste 0 -- -- 36
2019-04-13 16:00:00 21.2 10 Noroeste 26 Sur 0 -- -- 36
2019-04-13 15:00:00 20 12 Sudeste 24 Sudeste 0 -- -- 49
2019-04-13 14:00:00 19.8 9 Sudeste 34 Sur 0 -- -- 48
2019-04-13 13:00:00 19 8 Sudeste 16 Sudeste 0 -- -- 51
2019-04-13 12:00:00 17.5 6 Sudeste 14 Sudeste 0 -- -- 52
2019-04-13 11:00:00 15.7 3 Este 8 Este 0 -- -- 49
2019-04-13 10:00:00 12.9 3 Este 5 Este 0 -- -- 56
2019-04-13 09:00:00 9.4 0 Calma 5 Sudeste 0 -- -- 77
2019-04-13 08:00:00 8 0 Calma 4 Noroeste 0 -- -- 75
2019-04-13 07:00:00 8 0 Calma 5 Noroeste 0 -- -- 73
2019-04-13 06:00:00 8.8 4 Noroeste 9 Noroeste 0 -- -- 67
2019-04-13 05:00:00 9.1 5 Noroeste 13 Noroeste 0 -- -- 63
2019-04-13 04:00:00 8 0 Calma 9 Noroeste 0 -- -- 71
2019-04-13 03:00:00 9 5 Noroeste 10 Noroeste 0 -- -- 67
2019-04-13 02:00:00 8.9 5 Noroeste 9 Noroeste 0 -- -- 66
2019-04-13 01:00:00 9.3 4 Norte 10 Norte 0 -- -- 64
2019-04-13 00:00:00 10.9 7 Norte 14 Norte 0 -- -- 55
2019-04-12 23:00:00 11.4 6 Norte 17 Norte 0 -- -- 54
2019-04-12 22:00:00 11.6 9 Norte 13 Noroeste 0 -- -- 50
2019-04-12 21:00:00 11.1 4 Norte 9 Noroeste 0 -- -- 60
2019-04-12 20:00:00 15.5 4 Noroeste 14 Noroeste 0 -- -- 40
2019-04-12 19:00:00 18.2 6 Noroeste 22 Norte 0 -- -- 32
2019-04-12 18:00:00 19.3 8 Noroeste 24 Noroeste 0 -- -- 35
2019-04-12 17:00:00 19.9 8 Noroeste 21 Oeste 0 -- -- 36
2019-04-12 16:00:00 19.2 6 Sur 19 Sudeste 0 -- -- 39
2019-04-12 15:00:00 18.4 8 Sudeste 18 Sur 0 -- -- 39
2019-04-12 14:00:00 17.7 7 Sur 20 Sudeste 0 -- -- 43
2019-04-12 13:00:00 16.8 11 Sudeste 18 Este 0 -- -- 43
2019-04-12 12:00:00 16 5 Sudeste 15 Sur 0 -- -- 44
2019-04-12 11:00:00 14.7 4 Sudeste 8 Sur 0 -- -- 45
2019-04-12 10:00:00 14 3 Este 6 Sudeste 0 -- -- 45
2019-04-12 09:00:00 10.8 0 Calma 4 Noroeste 0 -- -- 55
2019-04-12 08:00:00 5.1 4 Noroeste 6 Noroeste 0 -- -- 73
2019-04-12 07:00:00 4.6 0 Calma 6 Nordeste 0 -- -- 74
2019-04-12 06:00:00 5 0 Calma 4 Norte 0 -- -- 71
2019-04-12 05:00:00 5.4 0 Calma 3 Noroeste 0 -- -- 71
2019-04-12 04:00:00 5.9 0 Calma 4 Noroeste 0 -- -- 69
2019-04-12 03:00:00 6.7 0 Calma 10 Norte 0 -- -- 67
2019-04-12 02:00:00 8.6 6 Noroeste 10 Noroeste 0 -- -- 56
2019-04-12 01:00:00 9 7 Noroeste 12 Noroeste 0 -- -- 60
2019-04-12 00:00:00 10.2 3 Nordeste 14 Noroeste 0 -- -- 60
2019-04-11 23:00:00 11.4 9 Noroeste 17 Noroeste 0 -- -- 54
2019-04-11 22:00:00 11.4 11 Noroeste 16 Noroeste 0 -- -- 55
2019-04-11 21:00:00 11.7 8 Norte 15 Noroeste 0 -- -- 50
2019-04-11 20:00:00 14.1 6 Noroeste 20 Oeste 0 -- -- 40
2019-04-11 19:00:00 16.5 5 Oeste 15 Oeste 0 -- -- 34
2019-04-11 18:00:00 17 6 Noroeste 28 Norte 0 -- -- 35
2019-04-11 17:00:00 17.2 10 Noroeste 21 Nordeste 0 -- -- 43
2019-04-11 16:00:00 16.4 7 Sudeste 26 Este 0 -- -- 46
2019-04-11 15:00:00 16.6 6 Sudeste 15 Sudeste 0 -- -- 49
2019-04-11 14:00:00 13.6 4 Sur 15 Sur 0 -- -- 57
2019-04-11 13:00:00 15.2 8 Sudeste 19 Sudeste 0 -- -- 55
2019-04-11 12:00:00 14.9 6 Sudeste 14 Este 0 -- -- 47
2019-04-11 11:00:00 13.5 6 Este 11 Este 0 -- -- 59
2019-04-11 10:00:00 12.6 4 Sudeste 8 Sudeste 0 -- -- 59
2019-04-11 09:00:00 10.2 0 Calma 8 Oeste 0 -- -- 62
2019-04-11 08:00:00 5.4 3 Oeste 10 Noroeste 0 -- -- 78
2019-04-11 07:00:00 6.1 6 Norte 14 Norte 0 -- -- 74
2019-04-11 06:00:00 6.4 3 Oeste 15 Noroeste 0 -- -- 74
2019-04-11 05:00:00 7.1 3 Nordeste 21 Noroeste 0 -- -- 68
2019-04-11 04:00:00 8.4 10 Noroeste 15 Noroeste 0 -- -- 62
2019-04-11 03:00:00 8.4 12 Noroeste 18 Norte 0 -- -- 63
2019-04-11 02:00:00 8.1 12 Noroeste 26 Norte 0 -- -- 67
2019-04-11 01:00:00 8.3 15 Norte 25 Noroeste 0 -- -- 68
2019-04-11 00:00:00 8.6 12 Norte 23 Noroeste 0 -- -- 68
2019-04-10 23:00:00 9 6 Norte 21 Oeste 0 -- -- 66
2019-04-10 22:00:00 9.4 6 Noroeste 18 Sudoeste 0 -- -- 64
2019-04-10 21:00:00 11.6 6 Sudeste 36 Oeste 0 -- -- 55
2019-04-10 20:00:00 12.9 11 Noroeste 31 Noroeste 0 -- -- 51
2019-04-10 19:00:00 14 8 Noroeste 28 Noroeste 0 -- -- 50
2019-04-10 18:00:00 14.8 5 Noroeste 30 Norte 0 -- -- 52
2019-04-10 17:00:00 14.7 7 Noroeste 30 Sudoeste 0 -- -- 51
2019-04-10 16:00:00 14.1 5 Noroeste 24 Noroeste 0 -- -- 56
2019-04-10 15:00:00 14.9 12 Noroeste 33 Norte 0 -- -- 48
2019-04-10 14:00:00 14.4 12 Noroeste 31 Norte 0 -- -- 56
2019-04-10 13:00:00 14.1 5 Norte 26 Noroeste 0 -- -- 57
2019-04-10 12:00:00 12.3 7 Noroeste 31 Norte 0 -- -- 60
2019-04-10 11:00:00 11.5 9 Noroeste 30 Noroeste 0 -- -- 62
2019-04-10 10:00:00 9.8 12 Noroeste 29 Noroeste 0 -- -- 66
2019-04-10 09:00:00 9.4 6 Noroeste 31 Norte 0 -- -- 66
2019-04-10 08:00:00 6.7 4 Sudoeste 17 Noroeste 0 -- -- 78
2019-04-10 07:00:00 7 4 Sudeste 17 Sur 0 -- -- 78
2019-04-10 06:00:00 6.3 4 Este 17 Noroeste 0 -- -- 84
2019-04-10 05:00:00 7.1 5 Sudeste 29 Norte 0 -- -- 76
2019-04-10 04:00:00 7 7 Nordeste 30 Oeste 0 -- -- 78
2019-04-10 03:00:00 7.1 7 Norte 30 Norte 0 -- -- 78
2019-04-10 02:00:00 7.8 6 Noroeste 32 Noroeste 0 -- -- 77
2019-04-10 01:00:00 8.5 3 Sudoeste 20 Noroeste 0 -- -- 76
2019-04-10 00:00:00 9 4 Noroeste 26 Noroeste 0 -- -- 75
2019-04-09 23:00:00 9.5 6 Noroeste 26 Oeste 0 -- -- 72
2019-04-09 22:00:00 9.8 6 Noroeste 23 Noroeste 0 -- -- 70
2019-04-09 21:00:00 10.4 5 Norte 23 Oeste 0 -- -- 68
2019-04-09 20:00:00 10.5 4 Nordeste 23 Noroeste 0 -- -- 67
2019-04-09 19:00:00 11.1 6 Norte 24 Noroeste 0.2 -- -- 65
2019-04-09 18:00:00 13 6 Norte 26 Norte 0 -- -- 57
2019-04-09 17:00:00 12 8 Noroeste 27 Norte 0.6 -- -- 76
2019-04-09 16:00:00 13.4 8 Noroeste 30 Oeste 0.2 -- -- 61
2019-04-09 15:00:00 9.8 7 Noroeste 25 Sur 1 -- -- 81
2019-04-09 14:00:00 12.2 9 Sudoeste 25 Sudoeste 0.6 -- -- 70
2019-04-09 13:00:00 10.6 4 Norte 28 Oeste 0 -- -- 71
2019-04-09 12:00:00 10.7 5 Sudoeste 28 Sudoeste 0.4 -- -- 73
2019-04-09 11:00:00 8.1 6 Sudoeste 21 Sudoeste 0.6 -- -- 84
2019-04-09 10:00:00 7.7 5 Sur 19 Sur 0 -- -- 83
2019-04-09 09:00:00 6.6 3 Sudeste 7 Sudeste 0.4 -- -- 94
2019-04-09 08:00:00 6.7 3 Este 12 Sur 0 -- -- 89
2019-04-09 07:00:00 7.3 3 Sur 13 Sudoeste 0 -- -- 81
2019-04-09 06:00:00 7.8 5 Sur 17 Sudoeste 0 -- -- 80
2019-04-09 05:00:00 7.6 3 Sur 12 Oeste 0 -- -- 81
2019-04-09 04:00:00 7.7 2 Sudoeste 15 Noroeste 0 -- -- 77
2019-04-09 03:00:00 7.4 2 Nordeste 13 Oeste 0 -- -- 82
2019-04-09 02:00:00 7.6 3 Sudoeste 16 Sudoeste 0 -- -- 78
2019-04-09 01:00:00 8.1 6 Oeste 35 Oeste 0 -- -- 77
2019-04-09 00:00:00 8 3 Oeste 15 Oeste 0 -- -- 77
2019-04-08 23:00:00 8.1 4 Noroeste 20 Noroeste 0 -- -- 79
2019-04-08 22:00:00 8.5 4 Nordeste 23 Sudoeste 0.6 -- -- 80
2019-04-08 21:00:00 8.7 3 Norte 15 Oeste 0.6 -- -- 82
2019-04-08 20:00:00 11.9 3 Nordeste 18 Sudoeste 0 -- -- 58
2019-04-08 19:00:00 14.1 4 Oeste 20 Noroeste 0 -- -- 49
2019-04-08 18:00:00 15.6 6 Sudoeste 19 Sur 0 -- -- 46
2019-04-08 17:00:00 16.6 7 Sur 19 Sudoeste 0 -- -- 42
2019-04-08 16:00:00 15.2 6 Sudoeste 24 Oeste 0 -- -- 54
2019-04-08 15:00:00 14.9 8 Sudoeste 36 Sudoeste 0 -- -- 56
2019-04-08 14:00:00 15.3 6 Sudoeste 30 Sur 0 -- -- 55
2019-04-08 13:00:00 12.3 6 Oeste 28 Noroeste 0 -- -- 68
2019-04-08 12:00:00 12.2 5 Sur 27 Sur 0 -- -- 70
2019-04-08 11:00:00 11.3 4 Sudoeste 16 Sur 0 -- -- 76
2019-04-08 10:00:00 11.9 5 Este 8 Nordeste 0 -- -- 86
2019-04-08 09:00:00 8.7 2 Nordeste 14 Oeste 0.4 -- -- 94
2019-04-08 08:00:00 9 4 Sudoeste 18 Sudoeste 3 -- -- 97
2019-04-08 07:00:00 9.1 6 Sudoeste 24 Sudoeste 0.4 -- -- 95
2019-04-08 06:00:00 9 4 Sur 13 Sudoeste 1 -- -- 93
2019-04-08 05:00:00 9.3 2 Sur 11 Oeste 0.4 -- -- 92
2019-04-08 04:00:00 9.6 3 Sur 13 Sur 0 -- -- 92
2019-04-08 03:00:00 9.8 3 Sudoeste 18 Sudoeste 0.4 -- -- 92
2019-04-08 02:00:00 9.4 0 Calma 6 Nordeste 0 -- -- 95
2019-04-08 01:00:00 9.6 2 Sur 15 Oeste 0 -- -- 91
2019-04-08 00:00:00 9.8 3 Sudoeste 20 Noroeste 0 -- -- 90
2019-04-07 23:00:00 9.1 2 Sudoeste 7 Este 1.2 -- -- 100
2019-04-07 22:00:00 8.8 4 Nordeste 8 Nordeste 0.6 -- -- 99
2019-04-07 21:00:00 8.7 2 Nordeste 5 Sudeste 2.2 -- -- 98
2019-04-07 20:00:00 8.7 0 Calma 4 Sudoeste 0.4 -- -- 98
2019-04-07 19:00:00 8.7 0 Calma 8 Sur 0.6 -- -- 96
2019-04-07 18:00:00 9 3 Sudeste 17 Sur 0 -- -- 91
2019-04-07 17:00:00 9.6 5 Sur 14 Sur 0 -- -- 86
2019-04-07 16:00:00 10 6 Sur 18 Sur 0.2 -- -- 82
2019-04-07 15:00:00 10.5 5 Sur 19 Noroeste 0.2 -- -- 76
2019-04-07 14:00:00 10.5 4 Sudoeste 14 Oeste 0 -- -- 74
2019-04-07 13:00:00 9.8 4 Sudoeste 13 Sur 0 -- -- 74
2019-04-07 12:00:00 9 4 Oeste 13 Oeste 0 -- -- 74
2019-04-07 11:00:00 7.1 2 Sur 14 Noroeste 0 -- -- 87
2019-04-07 10:00:00 6.7 4 Noroeste 19 Sudoeste 0 -- -- 84
2019-04-07 09:00:00 5.8 3 Este 16 Norte 0.2 -- -- 91
2019-04-07 08:00:00 5.4 4 Norte 19 Noroeste 0.8 -- -- 89
2019-04-07 07:00:00 5.8 6 Noroeste 28 Oeste 0.4 -- -- 87
2019-04-07 06:00:00 5.3 3 Oeste 27 Sudoeste 0.8 -- -- 91
2019-04-07 05:00:00 5.3 2 Sudeste 16 Norte 1.6 -- -- 92
2019-04-07 04:00:00 5.5 4 Sudoeste 22 Oeste 0.6 -- -- 92
2019-04-07 03:00:00 5.3 3 Norte 21 Sudoeste 1.8 -- -- 90
2019-04-07 02:00:00 5.3 4 Sudoeste 20 Sudoeste 1.2 -- -- 92
2019-04-07 01:00:00 5.4 3 Sudeste 24 Norte 1.4 -- -- 89
2019-04-07 00:00:00 5.8 6 Norte 31 Oeste 0.2 -- -- 80
2019-04-06 23:00:00 6.2 9 Norte 27 Noroeste 0 -- -- 78
2019-04-06 22:00:00 6.2 6 Nordeste 33 Noroeste 0 -- -- 77
2019-04-06 21:00:00 6.6 8 Norte 31 Noroeste 0 -- -- 74
2019-04-06 20:00:00 6.7 5 Norte 28 Noroeste 0.2 -- -- 73
2019-04-06 19:00:00 7.1 7 Norte 43 Sudoeste 0 -- -- 74
2019-04-06 18:00:00 6.7 8 Nordeste 36 Oeste 0.2 -- -- 79
2019-04-06 17:00:00 7 5 Sudoeste 30 Sudoeste 0.6 -- -- 82
2019-04-06 16:00:00 7.9 6 Sur 27 Oeste 0.6 -- -- 76
2019-04-06 15:00:00 8.5 10 Sudoeste 29 Sur 0.4 -- -- 67
2019-04-06 14:00:00 6.3 4 Noroeste 23 Oeste 0.8 -- -- 81
2019-04-06 13:00:00 9.3 7 Sudoeste 32 Sudoeste 0 -- -- 69
2019-04-06 12:00:00 7.4 6 Sudoeste 23 Sur 0.4 -- -- 83
2019-04-06 11:00:00 6.2 6 Sudoeste 25 Sudoeste 2 -- -- 83
2019-04-06 10:00:00 4.8 5 Sudoeste 32 Sudoeste 1.6 -- -- 87
2019-04-06 09:00:00 5.3 5 Sudeste 27 Sudoeste 0 -- -- 83
2019-04-06 08:00:00 4.9 5 Sudoeste 23 Oeste 0.4 -- -- 87
2019-04-06 07:00:00 5.3 5 Sudoeste 22 Sudoeste 0 -- -- 82
2019-04-06 06:00:00 5.1 4 Sur 21 Sudoeste 0 -- -- 83
2019-04-06 05:00:00 5.2 5 Noroeste 25 Noroeste 0 -- -- 76
2019-04-06 04:00:00 5.2 4 Sudoeste 16 Oeste 0 -- -- 77
2019-04-06 03:00:00 5.1 4 Sudoeste 23 Sudoeste 0 -- -- 81
2019-04-06 02:00:00 5.1 3 Oeste 19 Sudoeste 0 -- -- 78
2019-04-06 01:00:00 5.2 3 Nordeste 24 Sudoeste 0 -- -- 79
2019-04-06 00:00:00 5.3 3 Noroeste 21 Sudoeste 0 -- -- 79
2019-04-05 23:00:00 5.4 4 Oeste 17 Sudoeste 0.2 -- -- 83
2019-04-05 22:00:00 5.3 3 Sur 10 Sudoeste 0 -- -- 85
2019-04-05 21:00:00 4.8 2 Sudeste 16 Sudeste 0 -- -- 88
2019-04-05 20:00:00 5.4 2 Norte 24 Sudoeste 1.2 -- -- 86
2019-04-05 19:00:00 7.7 3 Sur 19 Noroeste 0 -- -- 66
2019-04-05 18:00:00 9.3 3 Sudoeste 22 Sudoeste 0 -- -- 59
2019-04-05 17:00:00 8.8 5 Sudoeste 20 Sur 0.2 -- -- 62
2019-04-05 16:00:00 9.7 5 Sur 26 Sudoeste 0 -- -- 64
2019-04-05 15:00:00 10.4 8 Sudoeste 26 Sudoeste 0 -- -- 61
2019-04-05 14:00:00 9.1 5 Este 22 Oeste 0 -- -- 78
2019-04-05 13:00:00 8.6 5 Sudeste 13 Norte 0.2 -- -- 83
2019-04-05 12:00:00 5.4 3 Sudeste 14 Oeste 0.8 -- -- 84
2019-04-05 11:00:00 5.7 3 Sur 24 Norte 1.4 -- -- 92
2019-04-05 10:00:00 6 2 Sur 6 Sudoeste 1.2 -- -- 96
2019-04-05 09:00:00 5.3 0 Calma 12 Sudoeste 2.2 -- -- 96
2019-04-05 08:00:00 5.3 2 Sur 10 Sudoeste 0.6 -- -- 97
2019-04-05 07:00:00 5.2 4 Sudoeste 18 Sur 0.4 -- -- 96
2019-04-05 06:00:00 5 7 Sur 24 Sudoeste 2 -- -- 94
2019-04-05 05:00:00 5.3 4 Sur 27 Oeste 1.4 -- -- 94
2019-04-05 04:00:00 5.1 6 Sur 36 Sur 1.2 -- -- 92
2019-04-05 03:00:00 5.3 8 Sudoeste 25 Sudoeste 1.4 -- -- 88
2019-04-05 02:00:00 5.7 5 Sudoeste 21 Sudoeste 0.6 -- -- 86
2019-04-05 01:00:00 6.4 4 Sudoeste 22 Noroeste 0.8 -- -- 79
2019-04-05 00:00:00 8.5 4 Noroeste 14 Noroeste 0 -- -- 62
2019-04-04 23:00:00 9.7 4 Oeste 16 Norte 0 -- -- 49
2019-04-04 22:00:00 10.2 5 Sur 15 Oeste 0 -- -- 42
2019-04-04 21:00:00 10.3 3 Sudoeste 15 Sur 0 -- -- 43
2019-04-04 20:00:00 11.5 7 Sur 18 Sudoeste 0 -- -- 41
2019-04-04 19:00:00 13.2 9 Sur 20 Sudoeste 0 -- -- 35
2019-04-04 18:00:00 15.4 7 Sur 23 Sur 0 -- -- 33
2019-04-04 17:00:00 15.8 9 Sur 21 Sur 0 -- -- 36
2019-04-04 16:00:00 15.7 10 Sur 24 Sudoeste 0 -- -- 38
2019-04-04 15:00:00 15.2 8 Sur 23 Sur 0 -- -- 38
2019-04-04 14:00:00 14.3 5 Sudoeste 31 Sur 0 -- -- 36
2019-04-04 13:00:00 13.2 10 Sudeste 21 Este 0 -- -- 41
2019-04-04 12:00:00 11.7 5 Sur 14 Sudeste 0 -- -- 41
2019-04-04 11:00:00 10 5 Este 13 Sudeste 0 -- -- 45
2019-04-04 10:00:00 9.1 3 Este 7 Este 0 -- -- 49
2019-04-04 09:00:00 6.5 2 Este 3 Nordeste 0 -- -- 57
2019-04-04 08:00:00 1.5 0 Calma 4 Noroeste 0 -- -- 75
2019-04-04 07:00:00 2.1 3 Noroeste 8 Noroeste 0 -- -- 70
2019-04-04 06:00:00 4.2 0 Calma 18 Norte 0 -- -- 62
2019-04-04 05:00:00 6 12 Noroeste 23 Noroeste 0 -- -- 52
2019-04-04 04:00:00 5.8 13 Norte 25 Norte 0 -- -- 54
2019-04-04 03:00:00 6 15 Norte 26 Norte 0 -- -- 54
2019-04-04 02:00:00 6.3 10 Norte 30 Norte 0 -- -- 53
2019-04-04 01:00:00 6.9 11 Norte 34 Noroeste 0 -- -- 50
2019-04-04 00:00:00 8 16 Norte 39 Noroeste 0 -- -- 47
2019-04-03 23:00:00 9 17 Norte 44 Noroeste 0 -- -- 45
2019-04-03 22:00:00 9.7 17 Noroeste 36 Noroeste 0 -- -- 45
2019-04-03 21:00:00 10.5 9 Noroeste 32 Noroeste 0 -- -- 43
2019-04-03 20:00:00 12 10 Noroeste 28 Norte 0 -- -- 41
2019-04-03 19:00:00 13.8 9 Noroeste 27 Noroeste 0 -- -- 36
2019-04-03 18:00:00 16.7 4 Oeste 26 Sudoeste 0 -- -- 32
2019-04-03 17:00:00 17 7 Sudoeste 31 Sudoeste 0 -- -- 32
2019-04-03 16:00:00 17.2 7 Oeste 24 Oeste 0 -- -- 42
2019-04-03 15:00:00 17.1 6 Sur 27 Sur 0 -- -- 45
2019-04-03 14:00:00 16.9 8 Sudoeste 24 Sur 0 -- -- 44
2019-04-03 13:00:00 15.8 6 Sudoeste 15 Oeste 0 -- -- 48
2019-04-03 12:00:00 12.7 6 Este 11 Sudeste 0 -- -- 70
2019-04-03 11:00:00 11 6 Sudeste 11 Sudeste 0 -- -- 77
2019-04-03 10:00:00 10.2 3 Sudeste 6 Sudeste 0 -- -- 76
2019-04-03 09:00:00 7.8 0 Calma 6 Noroeste 0 -- -- 83
2019-04-03 08:00:00 4.6 2 Norte 4 Norte 0 -- -- 94
2019-04-03 07:00:00 5.3 0 Calma 4 Noroeste 0 -- -- 89
2019-04-03 06:00:00 6.5 0 Calma 7 Norte 0 -- -- 86
2019-04-03 05:00:00 6.9 2 Norte 8 Noroeste 0 -- -- 85
2019-04-03 04:00:00 7.6 0 Calma 4 Noroeste 0 -- -- 84
2019-04-03 03:00:00 9.3 0 Calma 5 Norte 0 -- -- 74
2019-04-03 02:00:00 11.6 4 Norte 18 Norte 0 -- -- 65
2019-04-03 01:00:00 11.8 7 Norte 20 Noroeste 0 -- -- 68
2019-04-03 00:00:00 13.4 4 Este 18 Norte 0 -- -- 62
2019-04-02 23:00:00 12.8 0 Calma 12 Oeste 0 -- -- 63
2019-04-02 22:00:00 12.2 0 Calma 9 Noroeste 0 -- -- 68
2019-04-02 21:00:00 12.6 0 Calma 11 Noroeste 0 -- -- 63
2019-04-02 20:00:00 15.1 0 Calma 15 Oeste 0 -- -- 53
2019-04-02 19:00:00 16.9 2 Este 16 Sudoeste 0 -- -- 49
2019-04-02 18:00:00 17.1 4 Nordeste 18 Noroeste 0 -- -- 50
2019-04-02 17:00:00 20.2 6 Oeste 23 Sudoeste 0 -- -- 41
2019-04-02 16:00:00 19.7 7 Sur 21 Sur 0 -- -- 51
2019-04-02 15:00:00 18.7 12 Sur 25 Sudeste 0 -- -- 59
2019-04-02 14:00:00 16.7 6 Sur 14 Este 0 -- -- 62
2019-04-02 13:00:00 16.2 6 Sudeste 16 Este 0 -- -- 67
2019-04-02 12:00:00 14.4 7 Sudeste 13 Sudeste 0 -- -- 76
2019-04-02 11:00:00 13.5 5 Sudeste 9 Sudeste 0 -- -- 78
2019-04-02 10:00:00 10.8 0 Calma 4 Sudeste 0 -- -- 84
2019-04-02 09:00:00 8.9 0 Calma 3 Oeste 0 -- -- 98
2019-04-02 08:00:00 6.8 0 Calma 3 Noroeste 0 -- -- 99
2019-04-02 07:00:00 6.8 0 Calma 3 Norte 0 -- -- 98
2019-04-02 06:00:00 6.8 0 Calma 7 Oeste 0 -- -- 97
2019-04-02 05:00:00 6.4 0 Calma 3 Noroeste 0 -- -- 97
2019-04-02 04:00:00 7.5 0 Calma 2 Noroeste 0 -- -- 96
2019-04-02 03:00:00 7.1 0 Calma 4 Noroeste 0 -- -- 96
2019-04-02 02:00:00 7.7 3 Norte 4 Norte 0 -- -- 94
2019-04-02 01:00:00 8.4 2 Oeste 4 Noroeste 0 -- -- 94
2019-04-02 00:00:00 9 2 Oeste 6 Oeste 0 -- -- 92
2019-04-01 23:00:00 9.5 2 Noroeste 7 Oeste 0 -- -- 89
2019-04-01 22:00:00 9.3 0 Calma 4 Sudoeste 0 -- -- 93
2019-04-01 21:00:00 9.4 0 Calma 5 Oeste 0 -- -- 92
2019-04-01 20:00:00 10.9 5 Oeste 13 Norte 0.4 -- -- 89
2019-04-01 19:00:00 11.3 4 Sudoeste 22 Norte 0.2 -- -- 83
2019-04-01 18:00:00 12.6 10 Norte 20 Norte 0 -- -- 74
2019-04-01 17:00:00 14.8 7 Norte 19 Noroeste 0 -- -- 61
2019-04-01 16:00:00 16.6 9 Norte 20 Noroeste 0 -- -- 57
2019-04-01 15:00:00 15.7 6 Norte 17 Noroeste 0 -- -- 54
2019-04-01 14:00:00 13.2 3 Sudeste 13 Sudeste 0 -- -- 68
2019-04-01 13:00:00 13.6 5 Sudeste 10 Sudeste 0 -- -- 67
2019-04-01 12:00:00 13.5 7 Sudeste 11 Sudeste 0 -- -- 67
2019-04-01 11:00:00 12.4 2 Este 6 Sudeste 0 -- -- 74
2019-04-01 10:00:00 10.5 0 Calma 4 Noroeste 0 -- -- 82
2019-04-01 09:00:00 8.4 0 Calma 5 Noroeste 0 -- -- 92
2019-04-01 08:00:00 6.5 2 Noroeste 4 Noroeste 0 -- -- 95
2019-04-01 07:00:00 6.6 2 Norte 4 Noroeste 0 -- -- 94
2019-04-01 06:00:00 7.1 0 Calma 6 Norte 0 -- -- 92
2019-04-01 05:00:00 7.2 0 Calma 5 Noroeste 0 -- -- 91
2019-04-01 04:00:00 7.4 0 Calma 4 Noroeste 0 -- -- 92
2019-04-01 03:00:00 8.4 3 Oeste 5 Oeste 0 -- -- 87
2019-04-01 02:00:00 8.4 0 Calma 4 Noroeste 0 -- -- 88
2019-04-01 01:00:00 9 2 Norte 7 Nordeste 0 -- -- 82
2019-04-01 00:00:00 10.5 3 Nordeste 8 Sudeste 0 -- -- 75
2019-03-31 23:00:00 11.4 4 Sudeste 15 Sudeste 0 -- -- 71
2019-03-31 22:00:00 12.4 6 Este 17 Este 0 -- -- 67
2019-03-31 21:00:00 12.8 3 Sur 10 Este 0 -- -- 71
2019-03-31 20:00:00 14.1 5 Este 15 Este 0 -- -- 67
2019-03-31 19:00:00 14.3 3 Sudeste 22 Sudeste 0 -- -- 64
2019-03-31 18:00:00 16.9 6 Sudeste 19 Este 0 -- -- 51
2019-03-31 17:00:00 17.8 6 Nordeste 17 Nordeste 0 -- -- 48
2019-03-31 16:00:00 15.7 4 Sur 9 Sudoeste 0 -- -- 65
2019-03-31 15:00:00 13.7 6 Noroeste 21 Este 0.2 -- -- 71
2019-03-31 14:00:00 17.7 8 Sur 23 Este 0 -- -- 52
2019-03-31 13:00:00 17.8 11 Este 21 Este 0 -- -- 53
2019-03-31 12:00:00 16.7 11 Este 19 Sudeste 0 -- -- 56
2019-03-31 11:00:00 15.6 7 Sudeste 12 Sudeste 0 -- -- 59
2019-03-31 10:00:00 13.1 2 Sur 5 Sudoeste 0 -- -- 66
2019-03-31 09:00:00 10.5 0 Calma 6 Noroeste 0 -- -- 72
2019-03-31 08:00:00 6.6 3 Noroeste 4 Noroeste 0 -- -- 83
2019-03-31 07:00:00 7.7 0 Calma 5 Oeste 0 -- -- 78
2019-03-31 06:00:00 8.8 2 Noroeste 4 Oeste 0 -- -- 75
2019-03-31 05:00:00 9.1 2 Noroeste 6 Sudeste 0 -- -- 74
2019-03-31 03:00:00 10.8 2 Oeste 8 Oeste 0 -- -- 64
2019-03-31 01:00:00 10.3 3 Oeste 5 Noroeste 0 -- -- 65
2019-03-31 00:00:00 10.4 3 Noroeste 13 Oeste 0 -- -- 64
2019-03-30 23:00:00 11.8 3 Oeste 10 Noroeste 0 -- -- 58
2019-03-30 22:00:00 11.9 4 Norte 20 Sudeste 0 -- -- 61
2019-03-30 21:00:00 14.6 8 Norte 18 Norte 0 -- -- 41
2019-03-30 20:00:00 15 10 Norte 16 Noroeste 0 -- -- 41
2019-03-30 19:00:00 15.8 4 Norte 12 Este 0 -- -- 42
2019-03-30 18:00:00 18.5 6 Nordeste 19 Este 0 -- -- 35
2019-03-30 17:00:00 20.2 7 Nordeste 20 Nordeste 0 -- -- 31
2019-03-30 16:00:00 20.2 6 Este 26 Este 0 -- -- 34
2019-03-30 15:00:00 19.9 8 Este 21 Este 0 -- -- 33
2019-03-30 14:00:00 19.3 10 Este 21 Sudeste 0 -- -- 29
2019-03-30 13:00:00 18 6 Este 17 Sudeste 0 -- -- 33
2019-03-30 12:00:00 15.8 6 Sudeste 11 Sudeste 0 -- -- 47
2019-03-30 11:00:00 12.1 5 Este 10 Este 0 -- -- 56
2019-03-30 10:00:00 13.2 3 Sudeste 8 Este 0 -- -- 47
2019-03-30 09:00:00 12.2 0 Calma 7 Oeste 0 -- -- 49
2019-03-30 08:00:00 5.7 0 Calma 8 Noroeste 0 -- -- 76
2019-03-30 07:00:00 4.7 0 Calma 4 Noroeste 0 -- -- 75
2019-03-30 06:00:00 5.7 4 Oeste 6 Oeste 0 -- -- 66
2019-03-30 05:00:00 5.7 0 Calma 5 Noroeste 0 -- -- 64
2019-03-30 04:00:00 6 0 Calma 3 Norte 0 -- -- 59
2019-03-30 03:00:00 6.8 2 Noroeste 10 Oeste 0 -- -- 54
2019-03-30 02:00:00 7.1 4 Noroeste 8 Noroeste 0 -- -- 50
2019-03-30 01:00:00 7.6 0 Calma 2 Noroeste 0 -- -- 47
2019-03-30 00:00:00 8 0 Calma 3 Oeste 0 -- -- 49
2019-03-29 23:00:00 9.3 0 Calma 10 Noroeste 0 -- -- 46
2019-03-29 22:00:00 9.2 3 Noroeste 9 Noroeste 0 -- -- 42
2019-03-29 21:00:00 9.3 0 Calma 4 Noroeste 0 -- -- 44
2019-03-29 20:00:00 10.3 3 Noroeste 8 Noroeste 0 -- -- 44
2019-03-29 19:00:00 13.6 3 Sudoeste 13 Sur 0 -- -- 34
2019-03-29 18:00:00 16.6 0 Calma 14 Sudeste 0 -- -- 30
2019-03-29 17:00:00 19.1 5 Este 17 Sudeste 0 -- -- 23
2019-03-29 16:00:00 19.1 7 Este 21 Sudeste 0 -- -- 23
2019-03-29 15:00:00 18.7 7 Sur 22 Sur 0 -- -- 28
2019-03-29 14:00:00 17.9 6 Sudeste 23 Sudeste 0 -- -- 29
2019-03-29 13:00:00 17.2 8 Sudeste 22 Sudeste 0 -- -- 32
2019-03-29 12:00:00 15.7 7 Este 17 Este 0 -- -- 31
2019-03-29 11:00:00 15.3 6 Este 14 Sudeste 0 -- -- 31
2019-03-29 10:00:00 13.6 5 Sur 12 Sudeste 0 -- -- 37
2019-03-29 09:00:00 12.7 5 Sudeste 10 Sudeste 0 -- -- 36
2019-03-29 08:00:00 8.3 0 Calma 4 Norte 0 -- -- 50
2019-03-29 07:00:00 4.9 0 Calma 5 Norte 0 -- -- 58
2019-03-29 06:00:00 5.9 3 Noroeste 6 Norte 0 -- -- 51
2019-03-29 05:00:00 5.5 3 Noroeste 7 Noroeste 0 -- -- 53
2019-03-29 04:00:00 6.2 3 Norte 5 Noroeste 0 -- -- 53
2019-03-29 03:00:00 6.6 0 Calma 7 Nordeste 0 -- -- 52
2019-03-29 02:00:00 8.2 2 Norte 10 Nordeste 0 -- -- 47
2019-03-29 01:00:00 10.2 8 Nordeste 13 Norte 0 -- -- 37
2019-03-29 00:00:00 10.9 5 Nordeste 10 Nordeste 0 -- -- 35
2019-03-28 23:00:00 9.1 3 Noroeste 6 Noroeste 0 -- -- 43
2019-03-28 22:00:00 11.8 0 Calma 14 Nordeste 0 -- -- 39
2019-03-28 21:00:00 10.7 2 Norte 5 Norte 0 -- -- 42
2019-03-28 20:00:00 13 3 Norte 11 Este 0 -- -- 37
2019-03-28 19:00:00 16.6 5 Este 19 Sudeste 0 -- -- 26
2019-03-28 18:00:00 18 7 Sudeste 21 Sur 0 -- -- 26
2019-03-28 17:00:00 20.1 7 Sudeste 23 Sudeste 0 -- -- 22
2019-03-28 16:00:00 19.9 13 Este 28 Sudeste 0 -- -- 22
2019-03-28 15:00:00 19.9 9 Sudeste 31 Sudeste 0 -- -- 24
2019-03-28 14:00:00 18.8 15 Sudeste 33 Este 0 -- -- 22
2019-03-28 13:00:00 18.3 17 Este 30 Sudeste 0 -- -- 21
2019-03-28 12:00:00 17.2 10 Sudeste 24 Este 0 -- -- 26
2019-03-28 11:00:00 15.9 12 Este 22 Este 0 -- -- 23
2019-03-28 10:00:00 14.9 9 Sudeste 16 Sudeste 0 -- -- 29
2019-03-28 09:00:00 14 4 Este 9 Sudeste 0 -- -- 34
2019-03-28 08:00:00 9.4 2 Oeste 5 Oeste 0 -- -- 50
2019-03-28 07:00:00 5.3 2 Norte 4 Noroeste 0 -- -- 59
2019-03-28 06:00:00 6 0 Calma 5 Norte 0 -- -- 56
2019-03-28 05:00:00 5.6 0 Calma 3 Noroeste 0 -- -- 56
2019-03-28 04:00:00 6.4 0 Calma 6 Norte 0 -- -- 53
2019-03-28 03:00:00 7.8 4 Norte 6 Norte 0 -- -- 45
2019-03-28 02:00:00 8.1 2 Norte 5 Noroeste 0 -- -- 42
2019-03-28 01:00:00 8.4 0 Calma 7 Norte 0 -- -- 45
2019-03-28 00:00:00 9.6 4 Norte 8 Norte 0 -- -- 41
2019-03-27 23:00:00 9.1 2 Noroeste 4 Noroeste 0 -- -- 46
2019-03-27 22:00:00 10.7 2 Norte 10 Nordeste 0 -- -- 41
2019-03-27 21:00:00 11.3 5 Nordeste 12 Sur 0 -- -- 38
2019-03-27 20:00:00 13.4 7 Nordeste 17 Norte 0 -- -- 33
2019-03-27 19:00:00 15.1 8 Norte 17 Norte 0 -- -- 32
2019-03-27 18:00:00 17.2 6 Nordeste 21 Este 0 -- -- 26
2019-03-27 17:00:00 19.6 7 Nordeste 29 Norte 0 -- -- 26
2019-03-27 16:00:00 19.5 9 Norte 24 Este 0 -- -- 29
2019-03-27 15:00:00 18.9 8 Nordeste 29 Sudeste 0 -- -- 29
2019-03-27 14:00:00 17.8 13 Este 28 Sudeste 0 -- -- 32
2019-03-27 13:00:00 16.6 10 Nordeste 23 Este 0 -- -- 35
2019-03-27 12:00:00 15.7 10 Este 24 Este 0 -- -- 37
2019-03-27 11:00:00 14.6 10 Este 21 Nordeste 0 -- -- 35
2019-03-27 10:00:00 14.1 9 Este 18 Este 0 -- -- 32
2019-03-27 09:00:00 12.7 4 Este 10 Este 0 -- -- 36
2019-03-27 08:00:00 8.9 0 Calma 9 Sudoeste 0 -- -- 47
2019-03-27 07:00:00 7.6 4 Sudoeste 14 Este 0 -- -- 43
2019-03-27 06:00:00 9.4 6 Nordeste 24 Nordeste 0 -- -- 37
2019-03-27 05:00:00 10.4 12 Nordeste 22 Nordeste 0 -- -- 37
2019-03-27 04:00:00 10.9 11 Nordeste 23 Nordeste 0 -- -- 39
2019-03-27 03:00:00 11.6 7 Nordeste 19 Nordeste 0 -- -- 40
2019-03-27 02:00:00 11.8 6 Nordeste 15 Nordeste 0 -- -- 45
2019-03-27 01:00:00 12.8 6 Nordeste 17 Este 0 -- -- 41
2019-03-27 00:00:00 13.5 6 Este 19 Este 0 -- -- 44
2019-03-26 23:00:00 14.2 7 Nordeste 23 Este 0 -- -- 42
2019-03-26 22:00:00 15.1 3 Nordeste 25 Este 0 -- -- 38
2019-03-26 21:00:00 16.2 7 Este 22 Nordeste 0 -- -- 34
2019-03-26 20:00:00 17.2 6 Este 26 Nordeste 0 -- -- 28
2019-03-26 19:00:00 18.9 13 Nordeste 27 Este 0 -- -- 25
2019-03-26 18:00:00 20.2 13 Este 30 Este 0 -- -- 27
2019-03-26 17:00:00 22 13 Nordeste 28 Este 0 -- -- 26
2019-03-26 16:00:00 22.2 14 Nordeste 37 Este 0 -- -- 28
2019-03-26 15:00:00 21.6 19 Sudeste 35 Sudeste 0 -- -- 27
2019-03-26 14:00:00 21.2 14 Este 30 Nordeste 0 -- -- 31
2019-03-26 13:00:00 20.4 11 Nordeste 26 Este 0 -- -- 34
2019-03-26 12:00:00 18.9 12 Este 31 Este 0 -- -- 33
2019-03-26 11:00:00 17.9 13 Nordeste 28 Este 0 -- -- 31
2019-03-26 10:00:00 17.3 13 Este 23 Este 0 -- -- 31
2019-03-26 09:00:00 16.3 3 Sur 8 Sudeste 0 -- -- 33
2019-03-26 08:00:00 13.3 4 Norte 20 Noroeste 0 -- -- 31
2019-03-26 07:00:00 9.3 0 Calma 9 Sudoeste 0 -- -- 37
2019-03-26 06:00:00 11.7 3 Sudoeste 23 Norte 0 -- -- 31
2019-03-26 05:00:00 13.3 16 Noroeste 23 Norte 0 -- -- 28
2019-03-26 04:00:00 13.4 10 Norte 25 Noroeste 0 -- -- 30
2019-03-26 03:00:00 11.9 5 Norte 15 Nordeste 0 -- -- 33
2019-03-26 02:00:00 12.4 0 Calma 15 Nordeste 0 -- -- 39
2019-03-26 01:00:00 15.4 9 Nordeste 27 Nordeste 0 -- -- 30
2019-03-26 00:00:00 16.7 14 Norte 27 Norte 0 -- -- 27
2019-03-25 23:00:00 16.2 11 Norte 21 Norte 0 -- -- 30
2019-03-25 22:00:00 15.5 5 Nordeste 17 Norte 0 -- -- 31
2019-03-25 21:00:00 14.9 5 Norte 12 Nordeste 0 -- -- 34
2019-03-25 20:00:00 16.1 5 Nordeste 20 Nordeste 0 -- -- 33
2019-03-25 19:00:00 17.9 6 Nordeste 24 Este 0 -- -- 28
2019-03-25 18:00:00 19.7 11 Nordeste 23 Nordeste 0 -- -- 26
2019-03-25 17:00:00 21.8 9 Nordeste 26 Nordeste 0 -- -- 26
2019-03-25 16:00:00 22.2 12 Este 27 Este 0 -- -- 25
2019-03-25 15:00:00 22 11 Este 31 Nordeste 0 -- -- 27
2019-03-25 14:00:00 22.2 12 Este 25 Sudeste 0 -- -- 28
2019-03-25 13:00:00 21.4 13 Nordeste 30 Nordeste 0 -- -- 29
2019-03-25 12:00:00 20.4 13 Este 22 Nordeste 0 -- -- 29
2019-03-25 11:00:00 19.1 12 Sudeste 24 Nordeste 0 -- -- 29
2019-03-25 10:00:00 18.1 11 Este 22 Nordeste 0 -- -- 30
2019-03-25 09:00:00 16.6 3 Este 12 Este 0 -- -- 35
2019-03-25 08:00:00 12.2 0 Calma 22 Norte 0 -- -- 52
2019-03-25 07:00:00 12.1 13 Noroeste 20 Norte 0 -- -- 50
2019-03-25 06:00:00 9.8 5 Nordeste 10 Nordeste 0 -- -- 58
2019-03-25 05:00:00 9.4 0 Calma 8 Nordeste 0 -- -- 66
2019-03-25 04:00:00 9.4 2 Norte 6 Oeste 0 -- -- 67
2019-03-25 03:00:00 9.9 2 Norte 8 Oeste 0 -- -- 60
2019-03-25 02:00:00 10.6 2 Norte 6 Norte 0 -- -- 56
2019-03-25 01:00:00 10.1 2 Oeste 5 Oeste 0 -- -- 61
2019-03-25 00:00:00 11.1 2 Noroeste 10 Nordeste 0 -- -- 57
2019-03-24 23:00:00 13.2 5 Nordeste 14 Nordeste 0 -- -- 46
2019-03-24 22:00:00 10.7 0 Calma 4 Noroeste 0 -- -- 66
2019-03-24 21:00:00 11.4 0 Calma 6 Noroeste 0 -- -- 63
2019-03-24 20:00:00 12.8 5 Noroeste 9 Sudeste 0 -- -- 58
2019-03-24 19:00:00 17.6 6 Sur 13 Sur 0 -- -- 41
2019-03-24 18:00:00 18.7 11 Sudeste 20 Sudeste 0 -- -- 34
2019-03-24 17:00:00 20.2 12 Sudeste 26 Este 0 -- -- 33
2019-03-24 16:00:00 21.1 10 Este 26 Este 0 -- -- 36
2019-03-24 15:00:00 20.5 10 Este 29 Este 0 -- -- 35
2019-03-24 14:00:00 20.1 14 Este 31 Sudeste 0 -- -- 34
2019-03-24 13:00:00 19.2 7 Nordeste 26 Sudeste 0 -- -- 39
2019-03-24 12:00:00 17.5 15 Este 32 Nordeste 0 -- -- 41
2019-03-24 11:00:00 16.2 10 Este 23 Este 0 -- -- 46
2019-03-24 10:00:00 14.7 9 Este 22 Este 0 -- -- 49
2019-03-24 09:00:00 12.8 12 Nordeste 23 Este 0 -- -- 52
2019-03-24 08:00:00 10.4 5 Nordeste 16 Este 0 -- -- 60
2019-03-24 07:00:00 9 6 Nordeste 15 Este 0 -- -- 63
2019-03-24 06:00:00 8.4 3 Nordeste 10 Este 0 -- -- 66
2019-03-24 05:00:00 10.2 2 Este 20 Este 0 -- -- 62
2019-03-24 04:00:00 11.3 8 Nordeste 28 Nordeste 0 -- -- 58
2019-03-24 03:00:00 11.6 4 Este 21 Nordeste 0 -- -- 61
2019-03-24 02:00:00 12.1 8 Este 24 Este 0 -- -- 59
2019-03-24 01:00:00 11.6 3 Sur 12 Este 0 -- -- 62
2019-03-24 00:00:00 10.1 0 Calma 14 Sudeste 0 -- -- 71
2019-03-23 23:00:00 12.4 7 Este 19 Este 0 -- -- 57
2019-03-23 22:00:00 13.6 6 Sudeste 22 Este 0 -- -- 53
2019-03-23 21:00:00 13.4 6 Sudeste 21 Este 0 -- -- 53
2019-03-23 20:00:00 14.9 9 Sudeste 31 Sudeste 0 -- -- 48
2019-03-23 19:00:00 16.2 9 Este 30 Este 0 -- -- 42
2019-03-23 18:00:00 17.2 13 Este 32 Sudeste 0 -- -- 39
2019-03-23 17:00:00 18.6 13 Este 33 Este 0 -- -- 34
2019-03-23 16:00:00 18.9 15 Este 41 Sudeste 0 -- -- 35
2019-03-23 15:00:00 19.4 15 Este 39 Este 0 -- -- 35
2019-03-23 14:00:00 19.3 19 Sudeste 34 Este 0 -- -- 39
2019-03-23 13:00:00 19 8 Nordeste 26 Este 0 -- -- 41
2019-03-23 12:00:00 17.8 12 Nordeste 25 Este 0 -- -- 45
2019-03-23 11:00:00 17.3 11 Este 25 Este 0 -- -- 44
2019-03-23 10:00:00 16 9 Este 19 Nordeste 0 -- -- 47
2019-03-23 09:00:00 14.1 2 Este 12 Nordeste 0 -- -- 50
2019-03-23 08:00:00 8.9 0 Calma 5 Norte 0 -- -- 70
2019-03-23 07:00:00 6.5 4 Noroeste 8 Noroeste 0 -- -- 77
2019-03-23 06:00:00 6.5 3 Noroeste 6 Norte 0 -- -- 77
2019-03-23 05:00:00 7.1 3 Norte 7 Noroeste 0 -- -- 74
2019-03-23 04:00:00 7.7 4 Noroeste 6 Noroeste 0 -- -- 71
2019-03-23 03:00:00 8.4 2 Nordeste 8 Este 0 -- -- 68
2019-03-23 02:00:00 9.9 4 Nordeste 14 Este 0 -- -- 59
2019-03-23 01:00:00 11.1 4 Nordeste 18 Este 0 -- -- 52
2019-03-23 00:00:00 12.7 6 Este 23 Nordeste 0 -- -- 43
2019-03-22 23:00:00 13 8 Nordeste 19 Nordeste 0 -- -- 38
2019-03-22 22:00:00 11.6 3 Oeste 17 Noroeste 0 -- -- 43
2019-03-22 21:00:00 12.8 8 Norte 18 Norte 0 -- -- 38
2019-03-22 20:00:00 13.4 8 Norte 15 Norte 0 -- -- 37
2019-03-22 19:00:00 14.6 6 Nordeste 18 Nordeste 0 -- -- 36
2019-03-22 18:00:00 16.2 6 Este 21 Este 0 -- -- 32
2019-03-22 17:00:00 18.2 7 Nordeste 23 Este 0 -- -- 31
2019-03-22 16:00:00 18.3 10 Sudeste 25 Sudeste 0 -- -- 31
2019-03-22 15:00:00 18 8 Sudeste 22 Este 0 -- -- 32
2019-03-22 14:00:00 17.5 10 Sudeste 28 Este 0 -- -- 36
2019-03-22 13:00:00 16.3 12 Sudeste 23 Sudeste 0 -- -- 34
2019-03-22 12:00:00 15.9 11 Este 22 Sudeste 0 -- -- 35
2019-03-22 11:00:00 14.4 8 Sudeste 16 Sudeste 0 -- -- 38
2019-03-22 10:00:00 12.9 5 Este 10 Sudeste 0 -- -- 42
2019-03-22 09:00:00 11.1 3 Este 12 Nordeste 0 -- -- 41
2019-03-22 08:00:00 6.2 3 Norte 6 Nordeste 0 -- -- 55
2019-03-22 07:00:00 3.5 0 Calma 5 Noroeste 0 -- -- 66
2019-03-22 06:00:00 3.9 2 Noroeste 6 Nordeste 0 -- -- 67
2019-03-22 05:00:00 5.4 4 Norte 9 Nordeste 0 -- -- 58
2019-03-22 04:00:00 4.2 0 Calma 4 Noroeste 0 -- -- 66
2019-03-22 03:00:00 5.4 0 Calma 5 Norte 0 -- -- 60
2019-03-22 02:00:00 6.1 3 Norte 9 Nordeste 0 -- -- 58
2019-03-22 01:00:00 5.7 2 Noroeste 4 Noroeste 0 -- -- 61
2019-03-22 00:00:00 6.1 0 Calma 4 Norte 0 -- -- 57
2019-03-21 23:00:00 6.4 0 Calma 4 Norte 0 -- -- 57
2019-03-21 22:00:00 7.4 2 Norte 5 Norte 0 -- -- 53
2019-03-21 21:00:00 8.2 0 Calma 12 Noroeste 0 -- -- 53
2019-03-21 20:00:00 11.3 12 Noroeste 15 Noroeste 0 -- -- 40
2019-03-21 19:00:00 12.2 4 Norte 12 Norte 0 -- -- 40
2019-03-21 18:00:00 14.6 5 Norte 19 Este 0 -- -- 36
2019-03-21 17:00:00 16.9 10 Sudeste 25 Nordeste 0 -- -- 31
2019-03-21 16:00:00 16.8 7 Este 22 Sudeste 0 -- -- 30
2019-03-21 15:00:00 16.3 6 Sudeste 20 Sudeste 0 -- -- 33
2019-03-21 14:00:00 15.4 6 Sudeste 22 Este 0 -- -- 33
2019-03-21 13:00:00 14.6 9 Este 25 Este 0 -- -- 34
2019-03-21 12:00:00 13.7 13 Sudeste 25 Este 0 -- -- 35
2019-03-21 11:00:00 13.1 6 Sudeste 14 Este 0 -- -- 39
2019-03-21 10:00:00 12.2 6 Sudeste 14 Sudeste 0 -- -- 38
2019-03-21 09:00:00 10.7 3 Este 9 Este 0 -- -- 48
2019-03-21 08:00:00 5.9 0 Calma 9 Norte 0 -- -- 71
2019-03-21 07:00:00 3.2 0 Calma 4 Noroeste 0 -- -- 72
2019-03-21 06:00:00 3.7 0 Calma 11 Oeste 0 -- -- 69
2019-03-21 05:00:00 4.9 7 Noroeste 23 Este 0 -- -- 61
2019-03-21 04:00:00 5.2 0 Calma 5 Oeste 0 -- -- 64
2019-03-21 03:00:00 5.6 0 Calma 9 Oeste 0 -- -- 61
2019-03-21 02:00:00 6.8 0 Calma 8 Nordeste 0 -- -- 53
2019-03-21 01:00:00 7.8 4 Nordeste 10 Nordeste 0 -- -- 49
2019-03-21 00:00:00 6.6 0 Calma 6 Norte 0 -- -- 59
2019-03-20 23:00:00 6.2 2 Noroeste 3 Noroeste 0 -- -- 62
2019-03-20 22:00:00 6.9 0 Calma 5 Oeste 0 -- -- 59
2019-03-20 21:00:00 10.3 0 Calma 18 Nordeste 0 -- -- 45
2019-03-20 20:00:00 10.7 7 Norte 14 Norte 0 -- -- 42
2019-03-20 19:00:00 11.6 6 Norte 17 Norte 0 -- -- 42
2019-03-20 18:00:00 13.2 6 Norte 18 Este 0 -- -- 38
2019-03-20 17:00:00 15.5 6 Este 22 Este 0 -- -- 34
2019-03-20 16:00:00 15.4 10 Este 24 Este 0 -- -- 36
2019-03-20 15:00:00 14.9 10 Este 25 Sudeste 0 -- -- 38
2019-03-20 14:00:00 13.9 12 Este 29 Este 0 -- -- 41
2019-03-20 13:00:00 13.4 18 Sudeste 29 Este 0 -- -- 41
2019-03-20 12:00:00 12.9 13 Nordeste 30 Este 0 -- -- 41
2019-03-20 11:00:00 11.9 10 Este 22 Nordeste 0 -- -- 45
2019-03-20 10:00:00 10.5 9 Sudeste 18 Sudeste 0 -- -- 48
2019-03-20 09:00:00 9.2 4 Sudeste 8 Sudoeste 0 -- -- 50
2019-03-20 08:00:00 6 6 Nordeste 15 Nordeste 0 -- -- 60
2019-03-20 07:00:00 3.7 6 Nordeste 10 Nordeste 0 -- -- 69
2019-03-20 06:00:00 3.9 2 Norte 15 Noroeste 0 -- -- 72
2019-03-20 05:00:00 5.2 4 Noroeste 13 Oeste 0 -- -- 64
2019-03-20 04:00:00 4.3 3 Oeste 6 Oeste 0 -- -- 71
2019-03-20 03:00:00 5 3 Norte 6 Oeste 0 -- -- 69
2019-03-20 02:00:00 6.6 2 Oeste 10 Oeste 0 -- -- 63
2019-03-20 01:00:00 9.4 4 Sudeste 31 Norte 0 -- -- 51
2019-03-20 00:00:00 10.4 13 Norte 33 Nordeste 0 -- -- 48
2019-03-19 23:00:00 10.6 11 Norte 25 Norte 0 -- -- 49
2019-03-19 22:00:00 11 11 Norte 28 Norte 0 -- -- 47
2019-03-19 21:00:00 11.3 7 Norte 23 Nordeste 0 -- -- 45
2019-03-19 20:00:00 11.5 5 Norte 20 Norte 0 -- -- 46
2019-03-19 19:00:00 13.1 5 Nordeste 23 Nordeste 0 -- -- 42
2019-03-19 18:00:00 14.2 9 Nordeste 21 Nordeste 0 -- -- 40
2019-03-19 17:00:00 16.3 12 Nordeste 26 Este 0 -- -- 38
2019-03-19 16:00:00 16.5 13 Nordeste 30 Este 0 -- -- 37
2019-03-19 15:00:00 16.6 6 Este 24 Este 0 -- -- 41
2019-03-19 14:00:00 15.6 17 Este 28 Nordeste 0 -- -- 38
2019-03-19 13:00:00 15.8 11 Nordeste 29 Este 0 -- -- 40
2019-03-19 12:00:00 14.4 15 Este 26 Este 0 -- -- 40
2019-03-19 11:00:00 14 12 Este 27 Este 0 -- -- 42
2019-03-19 10:00:00 12.8 9 Este 21 Este 0 -- -- 41
2019-03-19 09:00:00 10.4 3 Este 15 Norte 0 -- -- 50
2019-03-19 08:00:00 7.4 5 Norte 11 Norte 0 -- -- 52
2019-03-19 07:00:00 4 0 Calma 4 Noroeste 0 -- -- 70
2019-03-19 06:00:00 4.7 0 Calma 5 Oeste 0 -- -- 67
2019-03-19 05:00:00 4.9 2 Oeste 4 Noroeste 0 -- -- 64
2019-03-19 04:00:00 5.1 0 Calma 8 Noroeste 0 -- -- 64
2019-03-19 03:00:00 7.8 5 Noroeste 14 Nordeste 0 -- -- 49
2019-03-19 02:00:00 6.8 3 Norte 11 Norte 0 -- -- 53
2019-03-19 01:00:00 6.7 0 Calma 4 Oeste 0 -- -- 55
2019-03-19 00:00:00 7.4 0 Calma 5 Nordeste 0 -- -- 53